Terminal Aerodrome Forecast
Issued by NWS Caribou, ME

Current Version | Previous Version | Text Only | Print | Product List | Glossary On
Versions: 1 2 3 4 5 6 7 8 9 10 11 12 13 14 15 16
000
FTUS41 KCAR 182300
TAFBGR
TAF
KBGR 182321Z 1900/1924 19011KT P6SM FEW120 OVC250
     FM190300 21003KT P6SM OVC020
     FM190900 23005KT P6SM VCSH OVC020
     FM191100 23007KT 5SM -SHSNRA OVC015
     FM191500 30008G15KT P6SM SCT025 BKN120=

USA.gov is the U.S. government's official web portal to all federal, state and local government web resources and services.